ADDS METAR Data INFO
IDs: Format: Raw Decoded Include TAF

Data at: 1531 UTC 18 Jun 2018

KSOP 181456Z AUTO 26007KT 10SM CLR 33/23 A3011 RMK AO2 SLP201 6//// T03280233 58003
KSOP 181356Z AUTO VRB05KT 10SM CLR 31/23 A3011 RMK AO2 SLP202 T03060233
KSOP 181256Z AUTO VRB03KT 10SM CLR 29/24 A3012 RMK AO2 SLP205 T02890239
KSOP 181156Z AUTO 25005KT 10SM CLR 27/23 A3011 RMK AO2 SLP205 7//// T02670233 10267 20244 52007
KSOP 181056Z AUTO 24005KT 10SM CLR 25/23 A3011 RMK AO2 SLP203 T02500228
KSOP 180956Z AUTO 24005KT 10SM CLR 24/23 A3010 RMK AO2 SLP201 T02440228
KSOP 180856Z AUTO 23005KT 10SM CLR 25/23 A3009 RMK AO2 SLP198 T02500228 55003
KSOP 180756Z AUTO 24006KT 10SM CLR 26/23 A3009 RMK AO2 SLP198 T02560228
KSOP 180656Z AUTO 24007KT 10SM CLR 26/23 A3009 RMK AO2 SLP197 T02610228
KSOP 180556Z AUTO 22009KT 10SM CLR 26/23 A3010 RMK AO2 SLP201 T02610233 10306 20261 56002
KSOP 180456Z AUTO 22010KT 10SM CLR 27/24 A3010 RMK AO2 SLP201 T02670239
KSOP 180356Z AUTO 21009KT 10SM CLR 27/24 A3011 RMK AO2 SLP202 T02720239 403500222
KSOP 180256Z AUTO 20010KT 10SM CLR 28/24 A3011 RMK AO2 SLP203 T02780239 53014
KSOP 180156Z AUTO 21008KT 10SM CLR 28/23 A3010 RMK AO2 SLP199 T02830228
KSOP 180056Z AUTO 21007KT 10SM CLR 29/22 A3008 RMK AO2 SLP193 T02890222
KSOP 172356Z AUTO 20008KT 10SM CLR 31/22 A3007 RMK AO2 SLP190 T03060217 10350 20306 55001
KSOP 172256Z AUTO 19011KT 10SM CLR 32/22 A3006 RMK AO2 SLP188 T03220222
KSOP 172156Z AUTO 19010KT 10SM CLR 33/23 A3007 RMK AO2 SLP192 T03280233
KSOP 172056Z AUTO 20012KT 10SM CLR 33/23 A3007 RMK AO2 SLP191 T03280228 58015
KSOP 171956Z AUTO 17008KT 10SM FEW046 SCT060 32/24 A3009 RMK AO2 SLP199 T03220239
KSOP 171856Z AUTO 19009KT 10SM SCT060 34/23 A3010 RMK AO2 LTG DSNT S SLP199 T03440228
KSOP 171756Z AUTO 22004KT 10SM FEW055 35/22 A3012 RMK AO2 SLP205 6//// T03500217 10350 20250 58009
KSOP 171656Z AUTO 31006KT 10SM FEW034 SCT047 SCT060 33/22 A3014 RMK AO2 SLP212 T03330222
KSOP 171556Z AUTO VRB04KT 10SM FEW037 32/23 A3014 RMK AO2 SLP215 T03220228
KSOP 171456Z AUTO 21007KT 200V270 10SM CLR 31/24 A3014 RMK AO2 SLP215 6//// T03060239 51006
KSOP 171356Z AUTO 18005KT 10SM CLR 29/24 A3014 RMK AO2 SLP215 T02890239
KSOP 171256Z AUTO 20003KT 10SM CLR 27/23 A3014 RMK AO2 SLP215 T02720233
KSOP 171156Z AUTO 22006KT 10SM CLR 25/24 A3012 RMK AO2 SLP209 7//// T02500239 10250 20222 53017
KSOP 171056Z AUTO 21004KT 9SM CLR 23/23 A3010 RMK AO2 SLP202 T02280228
KSOP 170956Z AUTO 22004KT 10SM CLR 22/22 A3009 RMK AO2 SLP197 T02220222
KSOP 170856Z AUTO 23004KT 10SM CLR 23/23 A3007 RMK AO2 SLP192 T02280228 56011
KSOP 170756Z AUTO 21004KT 10SM CLR 23/23 A3008 RMK AO2 SLP195 T02280228
KSOP 170656Z AUTO 22004KT 10SM CLR 23/23 A3009 RMK AO2 SLP198 T02330228
KSOP 170556Z AUTO 21008KT 10SM CLR 24/23 A3011 RMK AO2 SLP203 6//// T02390228 10294 20239 58002
KSOP 170456Z AUTO 20007KT 10SM CLR 24/22 A3012 RMK AO2 SLP207 T02440222
KSOP 170356Z AUTO 19007KT 10SM CLR 25/22 A3011 RMK AO2 SLP206 T02500222 403220194